createdAt,value
2022-11-29T00:00:39.404Z,968.44
2022-11-29T00:01:39.479Z,968.38
2022-11-29T00:02:39.570Z,968.41
2022-11-29T00:03:39.533Z,968.39
2022-11-29T00:04:39.592Z,968.41
2022-11-29T00:05:39.623Z,968.38
2022-11-29T00:06:39.665Z,968.41
2022-11-29T00:07:39.774Z,968.42
2022-11-29T00:08:39.748Z,968.43
2022-11-29T00:09:39.818Z,968.41
2022-11-29T00:10:39.845Z,968.42
2022-11-29T00:11:39.921Z,968.42
2022-11-29T00:12:40.763Z,968.42
2022-11-29T00:13:39.981Z,968.39
2022-11-29T00:14:40.028Z,968.41
2022-11-29T00:15:40.065Z,968.40
2022-11-29T00:16:40.175Z,968.39
2022-11-29T00:17:40.146Z,968.40
2022-11-29T00:18:40.193Z,968.42
2022-11-29T00:19:40.268Z,968.40
2022-11-29T00:20:40.287Z,968.40
2022-11-29T00:21:40.351Z,968.37
2022-11-29T00:22:41.268Z,968.35
2022-11-29T00:23:40.411Z,968.40
2022-11-29T00:24:40.478Z,968.38
2022-11-29T00:25:40.510Z,968.37
2022-11-29T00:26:40.581Z,968.36
2022-11-29T00:27:40.601Z,968.35
2022-11-29T00:28:40.638Z,968.35
2022-11-29T00:29:40.687Z,968.34
2022-11-29T00:30:40.777Z,968.37
2022-11-29T00:31:40.796Z,968.34
2022-11-29T00:32:40.823Z,968.30
2022-11-29T00:33:40.863Z,968.32
2022-11-29T00:34:41.033Z,968.28
2022-11-29T00:35:40.946Z,968.29
2022-11-29T00:36:41.024Z,968.26
2022-11-29T00:37:41.036Z,968.30
2022-11-29T00:38:41.088Z,968.26
2022-11-29T00:39:41.134Z,968.26
2022-11-29T00:40:41.181Z,968.23
2022-11-29T00:41:41.243Z,968.23
2022-11-29T00:42:41.264Z,968.24
2022-11-29T00:43:41.301Z,968.21
2022-11-29T00:44:41.513Z,968.24
2022-11-29T00:45:41.447Z,968.21
2022-11-29T00:46:41.466Z,968.22
2022-11-29T00:47:41.490Z,968.17
2022-11-29T00:48:41.529Z,968.20
2022-11-29T00:49:41.569Z,968.21
2022-11-29T00:50:41.641Z,968.19
2022-11-29T00:51:41.667Z,968.21
2022-11-29T00:52:41.731Z,968.21
2022-11-29T00:53:41.753Z,968.20
2022-11-29T00:54:41.984Z,968.21
2022-11-29T00:55:41.837Z,968.23
2022-11-29T00:56:41.916Z,968.21
2022-11-29T00:57:41.925Z,968.23
2022-11-29T00:58:41.970Z,968.21
2022-11-29T00:59:42.014Z,968.24
2022-11-29T01:00:42.066Z,968.21
2022-11-29T01:01:42.195Z,968.24
2022-11-29T01:02:42.200Z,968.21
2022-11-29T01:03:42.193Z,968.28
2022-11-29T01:04:42.434Z,968.23
2022-11-29T01:05:42.299Z,968.24
2022-11-29T01:06:42.334Z,968.22
2022-11-29T01:07:42.412Z,968.25
2022-11-29T01:08:42.419Z,968.22
2022-11-29T01:09:42.471Z,968.23
2022-11-29T01:10:42.538Z,968.22
2022-11-29T01:11:43.269Z,968.26
2022-11-29T01:12:42.637Z,968.24
2022-11-29T01:13:42.643Z,968.22
2022-11-29T01:14:43.038Z,968.23
2022-11-29T01:15:42.739Z,968.24
2022-11-29T01:16:42.842Z,968.25
2022-11-29T01:17:42.837Z,968.27
2022-11-29T01:18:42.881Z,968.25
2022-11-29T01:19:47.811Z,968.24
2022-11-29T01:20:42.979Z,968.29
2022-11-29T01:21:43.002Z,968.30
2022-11-29T01:22:43.049Z,968.24
2022-11-29T01:23:43.081Z,968.23
2022-11-29T01:24:43.332Z,968.27
2022-11-29T01:25:43.169Z,968.27
2022-11-29T01:26:43.216Z,968.31
2022-11-29T01:27:43.266Z,968.30
2022-11-29T01:28:43.307Z,968.30
2022-11-29T01:29:43.378Z,968.29
2022-11-29T01:30:44.306Z,968.30
2022-11-29T01:31:43.436Z,968.28
2022-11-29T01:32:43.487Z,968.28
2022-11-29T01:33:43.531Z,968.31
2022-11-29T01:34:43.782Z,968.32
2022-11-29T01:35:43.625Z,968.33
2022-11-29T01:36:43.663Z,968.34
2022-11-29T01:37:43.707Z,968.33
2022-11-29T01:38:43.760Z,968.28
2022-11-29T01:39:43.824Z,968.37
2022-11-29T01:40:43.844Z,968.38
2022-11-29T01:41:43.902Z,968.37
2022-11-29T01:42:43.937Z,968.33
2022-11-29T01:43:43.974Z,968.31
2022-11-29T01:44:44.229Z,968.32
2022-11-29T01:45:44.077Z,968.29
2022-11-29T01:46:44.112Z,968.29
2022-11-29T01:47:44.152Z,968.29
2022-11-29T01:48:44.209Z,968.33
2022-11-29T01:49:44.274Z,968.30
2022-11-29T01:50:44.296Z,968.29
2022-11-29T01:51:44.364Z,968.32
2022-11-29T01:52:44.376Z,968.31
2022-11-29T01:53:44.426Z,968.31
2022-11-29T01:54:44.761Z,968.30
2022-11-29T01:55:44.564Z,968.30
2022-11-29T01:56:44.562Z,968.29
2022-11-29T01:57:44.598Z,968.28
2022-11-29T01:58:44.651Z,968.27
2022-11-29T01:59:44.692Z,968.28
2022-11-29T02:00:44.754Z,968.27
2022-11-29T02:01:44.856Z,968.25
2022-11-29T02:02:44.930Z,968.25
2022-11-29T02:03:44.865Z,968.24
2022-11-29T02:04:45.171Z,968.24
2022-11-29T02:05:44.978Z,968.23
2022-11-29T02:06:45.000Z,968.22
2022-11-29T02:07:45.133Z,968.24
2022-11-29T02:08:45.088Z,968.25
2022-11-29T02:09:45.782Z,968.27
2022-11-29T02:10:45.209Z,968.28
2022-11-29T02:11:45.230Z,968.23
2022-11-29T02:12:45.305Z,968.22
2022-11-29T02:13:45.310Z,968.26
2022-11-29T02:14:45.551Z,968.24
2022-11-29T02:15:45.461Z,968.23
2022-11-29T02:16:45.451Z,968.22
2022-11-29T02:17:45.522Z,968.21
2022-11-29T02:18:45.538Z,968.21
2022-11-29T02:19:45.570Z,968.22
2022-11-29T02:20:45.620Z,968.23
2022-11-29T02:21:45.668Z,968.23
2022-11-29T02:22:45.736Z,968.22
2022-11-29T02:23:45.756Z,968.19
2022-11-29T02:24:46.014Z,968.21
2022-11-29T02:25:45.848Z,968.18
2022-11-29T02:26:45.894Z,968.18
2022-11-29T02:27:46.010Z,968.15
2022-11-29T02:28:46.788Z,968.14
2022-11-29T02:29:46.020Z,968.13
2022-11-29T02:30:46.177Z,968.13
2022-11-29T02:31:46.159Z,968.10
2022-11-29T02:32:46.189Z,968.14
2022-11-29T02:33:46.207Z,968.12
2022-11-29T02:34:46.524Z,968.11
2022-11-29T02:35:46.290Z,968.11
2022-11-29T02:36:46.338Z,968.09
2022-11-29T02:37:46.407Z,968.13
2022-11-29T02:38:46.450Z,968.10
2022-11-29T02:39:46.499Z,968.08
2022-11-29T02:40:46.542Z,968.11
2022-11-29T02:41:46.576Z,968.10
2022-11-29T02:42:49.786Z,968.13
2022-11-29T02:43:46.655Z,968.14
2022-11-29T02:44:46.793Z,968.12
2022-11-29T02:45:46.802Z,968.16
2022-11-29T02:46:46.802Z,968.14
2022-11-29T02:47:47.789Z,968.14
2022-11-29T02:48:46.871Z,968.08
2022-11-29T02:49:46.912Z,968.14
2022-11-29T02:50:46.984Z,968.14
2022-11-29T02:51:47.020Z,968.14
2022-11-29T02:52:47.063Z,968.18
2022-11-29T02:53:47.789Z,968.18
2022-11-29T02:54:47.502Z,968.18
2022-11-29T02:55:47.180Z,968.17
2022-11-29T02:56:47.252Z,968.17
2022-11-29T02:57:47.270Z,968.21
2022-11-29T02:58:47.332Z,968.18
2022-11-29T02:59:47.360Z,968.18
2022-11-29T03:00:47.398Z,968.18
2022-11-29T03:01:47.508Z,968.19
2022-11-29T03:02:47.517Z,968.17
2022-11-29T03:03:47.598Z,968.19
2022-11-29T03:04:47.655Z,968.19
2022-11-29T03:05:47.618Z,968.20
2022-11-29T03:06:47.671Z,968.21
2022-11-29T03:07:47.804Z,968.16
2022-11-29T03:08:47.751Z,968.16
2022-11-29T03:09:47.817Z,968.19
2022-11-29T03:10:47.850Z,968.17
2022-11-29T03:11:47.884Z,968.17
2022-11-29T03:12:47.936Z,968.16
2022-11-29T03:13:48.001Z,968.21
2022-11-29T03:14:48.026Z,968.19
2022-11-29T03:15:48.127Z,968.21
2022-11-29T03:16:48.112Z,968.20
2022-11-29T03:17:48.148Z,968.20
2022-11-29T03:18:48.202Z,968.21
2022-11-29T03:19:48.238Z,968.20
2022-11-29T03:20:48.311Z,968.26
2022-11-29T03:21:48.337Z,968.20
2022-11-29T03:22:48.386Z,968.21
2022-11-29T03:23:48.428Z,968.23
2022-11-29T03:24:48.462Z,968.24
2022-11-29T03:25:48.530Z,968.29
2022-11-29T03:26:48.590Z,968.24
2022-11-29T03:27:48.594Z,968.27
2022-11-29T03:28:48.651Z,968.25
2022-11-29T03:29:48.685Z,968.25
2022-11-29T03:30:48.777Z,968.26
2022-11-29T03:31:48.873Z,968.27
2022-11-29T03:32:48.883Z,968.27
2022-11-29T03:33:48.885Z,968.25
2022-11-29T03:34:51.805Z,968.25
2022-11-29T03:35:49.788Z,968.26
2022-11-29T03:36:49.026Z,968.25
2022-11-29T03:37:49.041Z,968.24
2022-11-29T03:38:49.092Z,968.24
2022-11-29T03:39:49.133Z,968.27
2022-11-29T03:40:49.188Z,968.23
2022-11-29T03:41:49.254Z,968.21
2022-11-29T03:42:49.263Z,968.21
2022-11-29T03:43:49.314Z,968.24
2022-11-29T03:44:49.389Z,968.19
2022-11-29T03:45:49.395Z,968.25
2022-11-29T03:46:49.439Z,968.26
2022-11-29T03:47:49.495Z,968.28
2022-11-29T03:48:49.541Z,968.23
2022-11-29T03:49:49.608Z,968.23
2022-11-29T03:50:49.630Z,968.23
2022-11-29T03:51:49.666Z,968.19
2022-11-29T03:52:49.722Z,968.22
2022-11-29T03:53:50.302Z,968.21
2022-11-29T03:54:49.819Z,968.22
2022-11-29T03:55:49.842Z,968.22
2022-11-29T03:56:49.894Z,968.23
2022-11-29T03:57:49.939Z,968.24
2022-11-29T03:58:49.984Z,968.25
2022-11-29T03:59:50.047Z,968.23
2022-11-29T04:00:50.071Z,968.23
2022-11-29T04:01:50.159Z,968.28
2022-11-29T04:02:50.182Z,968.28
2022-11-29T04:03:50.209Z,968.27
2022-11-29T04:04:50.263Z,968.27
2022-11-29T04:05:50.296Z,968.28
2022-11-29T04:06:50.337Z,968.29
2022-11-29T04:07:50.452Z,968.29
2022-11-29T04:08:50.451Z,968.30
2022-11-29T04:09:50.473Z,968.24
2022-11-29T04:10:50.511Z,968.28
2022-11-29T04:11:50.556Z,968.27
2022-11-29T04:12:50.611Z,968.28
2022-11-29T04:13:50.674Z,968.25
2022-11-29T04:14:50.701Z,968.24
2022-11-29T04:15:50.758Z,968.26
2022-11-29T04:16:51.300Z,968.26
2022-11-29T04:17:50.824Z,968.28
2022-11-29T04:18:50.900Z,968.29
2022-11-29T04:19:50.913Z,968.29
2022-11-29T04:20:50.965Z,968.27
2022-11-29T04:21:51.008Z,968.23
2022-11-29T04:22:51.046Z,968.29
2022-11-29T04:23:51.122Z,968.30
2022-11-29T04:24:51.170Z,968.27
2022-11-29T04:25:51.190Z,968.29
2022-11-29T04:26:51.796Z,968.26
2022-11-29T04:27:51.271Z,968.29
2022-11-29T04:28:51.355Z,968.29
2022-11-29T04:29:51.359Z,968.31
2022-11-29T04:30:51.436Z,968.34
2022-11-29T04:31:51.451Z,968.31
2022-11-29T04:32:51.503Z,968.35
2022-11-29T04:33:51.569Z,968.36
2022-11-29T04:34:51.590Z,968.37
2022-11-29T04:35:51.637Z,968.38
2022-11-29T04:36:51.704Z,968.38
2022-11-29T04:37:51.753Z,968.37
2022-11-29T04:38:51.761Z,968.39
2022-11-29T04:39:51.817Z,968.39
2022-11-29T04:40:51.854Z,968.40
2022-11-29T04:41:51.905Z,968.40
2022-11-29T04:42:51.972Z,968.39
2022-11-29T04:43:51.985Z,968.38
2022-11-29T04:44:52.039Z,968.38
2022-11-29T04:45:52.075Z,968.41
2022-11-29T04:46:52.131Z,968.39
2022-11-29T04:47:52.189Z,968.44
2022-11-29T04:48:52.235Z,968.43
2022-11-29T04:49:52.255Z,968.40
2022-11-29T04:50:52.302Z,968.44
2022-11-29T04:51:52.343Z,968.43
2022-11-29T04:52:52.417Z,968.43
2022-11-29T04:53:53.298Z,968.46
2022-11-29T04:54:52.486Z,968.42
2022-11-29T04:55:52.522Z,968.45
2022-11-29T04:56:52.576Z,968.50
2022-11-29T04:57:52.640Z,968.47
2022-11-29T04:58:52.666Z,968.50
2022-11-29T04:59:52.712Z,968.49
2022-11-29T05:00:52.754Z,968.45
2022-11-29T05:01:52.821Z,968.49
2022-11-29T05:02:52.894Z,968.51
2022-11-29T05:03:57.106Z,968.49
2022-11-29T05:04:52.958Z,968.51
2022-11-29T05:05:52.970Z,968.54
2022-11-29T05:06:53.016Z,968.53
2022-11-29T05:07:53.102Z,968.50
2022-11-29T05:08:53.128Z,968.53
2022-11-29T05:09:53.148Z,968.53
2022-11-29T05:10:53.230Z,968.54
2022-11-29T05:11:53.247Z,968.52
2022-11-29T05:12:53.290Z,968.50
2022-11-29T05:13:53.341Z,968.52
2022-11-29T05:14:53.407Z,968.48
2022-11-29T05:15:53.495Z,968.51
2022-11-29T05:16:53.468Z,968.53
2022-11-29T05:17:53.507Z,968.53
2022-11-29T05:18:53.563Z,968.56
2022-11-29T05:19:53.628Z,968.54
2022-11-29T05:20:53.654Z,968.62
2022-11-29T05:21:53.696Z,968.57
2022-11-29T05:22:53.760Z,968.60
2022-11-29T05:23:53.787Z,968.57
2022-11-29T05:24:53.852Z,968.62
2022-11-29T05:25:53.903Z,968.58
2022-11-29T05:26:53.918Z,968.65
2022-11-29T05:27:53.956Z,968.63
2022-11-29T05:28:54.004Z,968.65
2022-11-29T05:29:54.046Z,968.63
2022-11-29T05:30:54.145Z,968.60
2022-11-29T05:31:54.145Z,968.63
2022-11-29T05:32:54.189Z,968.66
2022-11-29T05:33:54.223Z,968.67
2022-11-29T05:34:54.284Z,968.65
2022-11-29T05:35:54.356Z,968.66
2022-11-29T05:36:54.361Z,968.67
2022-11-29T05:37:54.414Z,968.69
2022-11-29T05:38:54.459Z,968.63
2022-11-29T05:39:54.513Z,968.68
2022-11-29T05:40:54.570Z,968.67
2022-11-29T05:41:54.622Z,968.68
2022-11-29T05:42:54.638Z,968.68
2022-11-29T05:43:54.684Z,968.70
2022-11-29T05:44:54.722Z,968.69
2022-11-29T05:45:54.780Z,968.71
2022-11-29T05:46:54.843Z,968.70
2022-11-29T05:47:54.855Z,968.72
2022-11-29T05:48:54.911Z,968.72
2022-11-29T05:49:55.820Z,968.74
2022-11-29T05:50:54.989Z,968.71
2022-11-29T05:51:55.059Z,968.74
2022-11-29T05:52:55.088Z,968.71
2022-11-29T05:53:55.155Z,968.74
2022-11-29T05:54:55.178Z,968.76
2022-11-29T05:55:55.224Z,968.76
2022-11-29T05:56:55.265Z,968.76
2022-11-29T05:57:55.302Z,968.76
2022-11-29T05:58:55.377Z,968.77
2022-11-29T05:59:56.315Z,968.77
2022-11-29T06:00:55.447Z,968.80
2022-11-29T06:01:55.540Z,968.78
2022-11-29T06:02:55.579Z,968.79
2022-11-29T06:03:55.597Z,968.81
2022-11-29T06:04:55.616Z,968.82
2022-11-29T06:05:55.660Z,968.82
2022-11-29T06:06:55.706Z,968.80
2022-11-29T06:07:55.786Z,968.79
2022-11-29T06:08:55.822Z,968.83
2022-11-29T06:10:00.502Z,968.82
2022-11-29T06:10:55.889Z,968.84
2022-11-29T06:11:55.942Z,968.79
2022-11-29T06:12:55.976Z,968.83
2022-11-29T06:13:56.055Z,968.82
2022-11-29T06:14:56.077Z,968.80
2022-11-29T06:15:56.154Z,968.79
2022-11-29T06:16:56.161Z,968.78
2022-11-29T06:17:56.201Z,968.84
2022-11-29T06:18:56.283Z,968.83
2022-11-29T06:19:56.291Z,968.81
2022-11-29T06:20:56.340Z,968.81
2022-11-29T06:21:56.406Z,968.86
2022-11-29T06:22:56.432Z,968.83
2022-11-29T06:23:56.478Z,968.86
2022-11-29T06:24:56.559Z,968.85
2022-11-29T06:26:02.226Z,968.88
2022-11-29T06:26:56.606Z,968.87
2022-11-29T06:27:56.649Z,968.86
2022-11-29T06:28:56.696Z,968.89
2022-11-29T06:29:56.765Z,968.92
2022-11-29T06:30:56.857Z,968.91
2022-11-29T06:31:56.834Z,968.91
2022-11-29T06:32:56.901Z,968.97
2022-11-29T06:33:56.929Z,968.96
2022-11-29T06:34:56.997Z,968.93
2022-11-29T06:35:57.008Z,968.97
2022-11-29T06:36:57.086Z,968.95
2022-11-29T06:37:57.099Z,968.99
2022-11-29T06:38:57.143Z,969.02
2022-11-29T06:39:57.200Z,969.01
2022-11-29T06:41:01.530Z,969.01
2022-11-29T06:41:57.311Z,969.02
2022-11-29T06:42:57.323Z,969.03
2022-11-29T06:43:57.399Z,969.03
2022-11-29T06:44:57.414Z,969.06
2022-11-29T06:45:57.483Z,969.07
2022-11-29T06:46:57.550Z,969.08
2022-11-29T06:47:57.570Z,969.09
2022-11-29T06:49:01.954Z,969.08
2022-11-29T06:49:57.635Z,969.09
2022-11-29T06:50:58.317Z,969.10
2022-11-29T06:51:57.753Z,969.11
2022-11-29T06:52:57.770Z,969.09
2022-11-29T06:53:57.823Z,969.11
2022-11-29T06:54:57.861Z,969.10
2022-11-29T06:55:57.907Z,969.11
2022-11-29T06:56:57.976Z,969.11
2022-11-29T06:57:57.997Z,969.13
2022-11-29T06:58:58.048Z,969.09
2022-11-29T06:59:58.120Z,969.09
2022-11-29T07:00:58.152Z,969.09
2022-11-29T07:01:58.231Z,969.08
2022-11-29T07:02:58.233Z,969.10
2022-11-29T07:03:58.272Z,969.12
2022-11-29T07:04:58.315Z,969.14
2022-11-29T07:05:58.357Z,969.14
2022-11-29T07:06:58.427Z,969.14
2022-11-29T07:07:58.462Z,969.16
2022-11-29T07:08:58.487Z,969.18
2022-11-29T07:09:58.540Z,969.17
2022-11-29T07:10:58.599Z,969.17
2022-11-29T07:11:58.620Z,969.16
2022-11-29T07:12:58.670Z,969.18
2022-11-29T07:13:58.718Z,969.18
2022-11-29T07:14:58.784Z,969.22
2022-11-29T07:15:58.888Z,969.19
2022-11-29T07:16:58.878Z,969.23
2022-11-29T07:49:28.363Z,969.30
2022-11-29T07:50:28.379Z,969.34
2022-11-29T07:51:28.975Z,969.29
2022-11-29T07:52:28.452Z,969.30
2022-11-29T07:53:28.524Z,969.33
2022-11-29T07:54:28.533Z,969.31
2022-11-29T07:55:28.590Z,969.31
2022-11-29T07:56:28.632Z,969.34
2022-11-29T07:57:28.665Z,969.35
2022-11-29T07:58:28.749Z,969.34
2022-11-29T07:59:28.752Z,969.36
2022-11-29T08:00:28.802Z,969.38
2022-11-29T08:01:28.920Z,969.40
2022-11-29T08:02:29.013Z,969.37
2022-11-29T08:03:28.966Z,969.39
2022-11-29T08:04:28.978Z,969.45
2022-11-29T08:05:29.018Z,969.44
2022-11-29T08:06:29.087Z,969.47
2022-11-29T08:07:29.211Z,969.45
2022-11-29T08:08:29.147Z,969.46
2022-11-29T08:09:29.188Z,969.45
2022-11-29T08:10:29.979Z,969.47
2022-11-29T08:11:29.300Z,969.47
2022-11-29T08:12:29.334Z,969.49
2022-11-29T08:13:29.392Z,969.51
2022-11-29T08:14:29.448Z,969.56
2022-11-29T08:15:29.457Z,969.52
2022-11-29T08:16:30.525Z,969.55
2022-11-29T08:17:29.566Z,969.55
2022-11-29T08:18:29.621Z,969.58
2022-11-29T08:19:29.667Z,969.58
2022-11-29T08:20:29.692Z,969.58
2022-11-29T08:21:29.738Z,969.62
2022-11-29T08:22:29.782Z,969.61
2022-11-29T08:23:29.825Z,969.64
2022-11-29T08:24:29.902Z,969.59
2022-11-29T08:25:29.913Z,969.62
2022-11-29T08:26:31.869Z,969.61
2022-11-29T08:27:29.994Z,969.65
2022-11-29T08:28:30.049Z,969.65
2022-11-29T08:29:30.094Z,969.65
2022-11-29T08:30:30.137Z,969.65
2022-11-29T08:31:30.216Z,969.64
2022-11-29T08:32:30.220Z,969.64
2022-11-29T08:33:30.277Z,969.66
2022-11-29T08:34:30.345Z,969.64
2022-11-29T08:35:30.365Z,969.68
2022-11-29T08:36:30.400Z,969.71
2022-11-29T08:37:30.450Z,969.69
2022-11-29T08:38:30.516Z,969.71
2022-11-29T08:39:30.585Z,969.70
2022-11-29T08:40:30.630Z,969.70
2022-11-29T08:41:30.675Z,969.73
2022-11-29T08:42:30.732Z,969.74
2022-11-29T08:43:30.846Z,969.72
2022-11-29T08:44:30.817Z,969.75
2022-11-29T08:45:30.852Z,969.74
2022-11-29T08:46:30.900Z,969.74
2022-11-29T08:47:30.947Z,969.76
2022-11-29T08:48:31.050Z,969.78
2022-11-29T08:49:31.040Z,969.79
2022-11-29T08:50:31.088Z,969.79
2022-11-29T08:51:31.127Z,969.77
2022-11-29T08:52:31.251Z,969.77
2022-11-29T08:53:31.199Z,969.77
2022-11-29T08:54:31.228Z,969.79
2022-11-29T08:55:31.265Z,969.78
2022-11-29T08:57:10.173Z,969.76
2022-11-29T08:57:39.705Z,969.77
2022-11-29T08:58:31.410Z,969.75
2022-11-29T08:59:31.444Z,969.76
2022-11-29T09:00:31.501Z,969.77
2022-11-29T09:01:31.633Z,969.77
2022-11-29T09:02:31.633Z,969.75
2022-11-29T09:03:31.653Z,969.78
2022-11-29T09:04:32.486Z,969.77
2022-11-29T09:05:31.720Z,969.80
2022-11-29T09:06:31.765Z,969.79
2022-11-29T09:07:31.915Z,969.79
2022-11-29T09:08:31.865Z,969.82
2022-11-29T09:09:31.908Z,969.84
2022-11-29T09:10:31.948Z,969.82
2022-11-29T09:11:31.993Z,969.81
2022-11-29T09:12:32.062Z,969.85
2022-11-29T09:13:32.094Z,969.82
2022-11-29T09:14:32.140Z,969.84
2022-11-29T09:15:32.197Z,969.83
2022-11-29T09:16:32.240Z,969.87
2022-11-29T09:17:32.298Z,969.88
2022-11-29T09:18:32.311Z,969.89
2022-11-29T09:19:32.357Z,969.90
2022-11-29T09:20:32.436Z,969.90
2022-11-29T09:21:32.483Z,969.89
2022-11-29T09:22:32.500Z,969.91
2022-11-29T09:23:32.553Z,969.94
2022-11-29T09:24:32.585Z,969.92
2022-11-29T09:25:32.638Z,969.93
2022-11-29T09:26:32.790Z,969.96
2022-11-29T09:27:32.841Z,969.90
2022-11-29T09:28:32.848Z,969.97
2022-11-29T09:29:32.881Z,969.96
2022-11-29T09:30:32.946Z,969.97
2022-11-29T09:31:33.014Z,969.99
2022-11-29T09:32:33.025Z,969.97
2022-11-29T09:33:33.106Z,969.99
2022-11-29T09:34:33.116Z,969.98
2022-11-29T09:35:33.167Z,970.00
2022-11-29T09:36:33.183Z,970.02
2022-11-29T09:37:33.196Z,970.01
2022-11-29T09:38:33.228Z,970.02
2022-11-29T09:39:33.314Z,970.03
2022-11-29T09:40:33.321Z,970.01
2022-11-29T09:41:33.368Z,970.04
2022-11-29T09:42:33.415Z,970.03
2022-11-29T09:43:33.455Z,970.06
2022-11-29T09:44:33.519Z,970.08
2022-11-29T09:45:33.636Z,970.07
2022-11-29T09:46:33.602Z,970.07
2022-11-29T09:47:33.640Z,970.10
2022-11-29T09:48:33.684Z,970.08
2022-11-29T09:49:33.743Z,970.05
2022-11-29T09:50:33.894Z,970.08
2022-11-29T09:51:35.366Z,970.07
2022-11-29T09:52:33.921Z,970.06
2022-11-29T09:53:33.969Z,970.04
2022-11-29T09:54:34.034Z,970.06
2022-11-29T09:55:34.113Z,970.08
2022-11-29T09:56:34.150Z,970.04
2022-11-29T09:57:34.154Z,970.07
2022-11-29T09:58:34.204Z,970.09
2022-11-29T09:59:34.199Z,970.07
2022-11-29T10:00:34.246Z,970.07
2022-11-29T10:01:34.356Z,970.07
2022-11-29T10:02:34.371Z,970.12
2022-11-29T10:03:34.376Z,970.04
2022-11-29T10:04:34.476Z,970.06
2022-11-29T10:05:34.516Z,970.04
2022-11-29T10:06:34.566Z,970.06
2022-11-29T10:07:34.705Z,970.03
2022-11-29T10:08:34.636Z,970.01
2022-11-29T10:09:34.706Z,970.01
2022-11-29T10:10:34.712Z,970.02
2022-11-29T10:11:34.795Z,970.06
2022-11-29T10:12:34.890Z,970.04
2022-11-29T10:13:34.892Z,970.03
2022-11-29T10:14:34.942Z,970.05
2022-11-29T10:15:34.970Z,970.04
2022-11-29T10:16:35.116Z,970.06
2022-11-29T10:17:35.028Z,970.04
2022-11-29T10:18:35.130Z,970.04
2022-11-29T10:19:35.155Z,970.05
2022-11-29T10:20:39.737Z,970.06
2022-11-29T10:21:35.312Z,970.06
2022-11-29T10:22:35.307Z,970.05
2022-11-29T10:23:35.352Z,970.02
2022-11-29T10:24:35.463Z,970.06
2022-11-29T10:25:35.451Z,970.05
2022-11-29T10:26:36.061Z,970.05
2022-11-29T10:27:35.545Z,970.02
2022-11-29T10:28:35.589Z,970.05
2022-11-29T10:29:35.651Z,970.01
2022-11-29T10:30:35.717Z,970.01
2022-11-29T10:31:35.738Z,970.00
2022-11-29T10:32:36.523Z,970.02
2022-11-29T10:33:35.868Z,970.02
2022-11-29T10:34:35.843Z,970.02
2022-11-29T10:35:35.924Z,970.02
2022-11-29T10:36:35.912Z,969.98
2022-11-29T10:37:36.021Z,969.96
2022-11-29T10:38:36.107Z,969.99
2022-11-29T10:39:36.156Z,969.98
2022-11-29T10:40:36.177Z,969.96
2022-11-29T10:41:36.167Z,969.99
2022-11-29T10:42:36.214Z,969.98
2022-11-29T10:43:36.287Z,969.97
2022-11-29T10:44:36.351Z,969.97
2022-11-29T10:45:36.469Z,969.97
2022-11-29T10:46:36.471Z,969.99
2022-11-29T10:47:36.482Z,969.99
2022-11-29T10:48:36.494Z,969.94
2022-11-29T10:49:36.520Z,969.98
2022-11-29T10:50:36.594Z,969.95
2022-11-29T10:51:36.607Z,969.94
2022-11-29T10:52:36.657Z,969.94
2022-11-29T10:53:36.767Z,969.94
2022-11-29T10:54:36.791Z,969.94
2022-11-29T10:55:36.928Z,969.97
2022-11-29T10:56:36.961Z,969.95
2022-11-29T10:57:36.952Z,969.94
2022-11-29T10:58:36.979Z,969.94
2022-11-29T10:59:37.057Z,969.94
2022-11-29T11:00:37.096Z,969.95
2022-11-29T11:01:37.164Z,969.94
2022-11-29T11:02:37.234Z,969.91
2022-11-29T11:03:37.220Z,969.92
2022-11-29T11:04:37.220Z,969.91
2022-11-29T11:05:37.432Z,969.92
2022-11-29T11:06:37.316Z,969.95
2022-11-29T11:07:37.465Z,969.93
2022-11-29T11:08:37.431Z,969.93
2022-11-29T11:09:37.452Z,969.96
2022-11-29T11:10:37.530Z,969.93
2022-11-29T11:11:37.553Z,969.93
2022-11-29T11:12:37.599Z,969.92
2022-11-29T11:13:37.644Z,969.96
2022-11-29T11:14:37.728Z,969.94
2022-11-29T11:15:37.769Z,969.93
2022-11-29T11:16:37.963Z,969.95
2022-11-29T11:17:37.821Z,969.92
2022-11-29T11:18:37.881Z,969.89
2022-11-29T11:19:37.933Z,969.94
2022-11-29T11:20:37.990Z,969.92
2022-11-29T11:21:38.016Z,969.95
2022-11-29T11:22:38.065Z,969.92
2022-11-29T11:23:42.522Z,969.91
2022-11-29T11:24:38.213Z,969.92
2022-11-29T11:25:38.236Z,969.94
2022-11-29T11:26:38.251Z,969.96
2022-11-29T11:27:38.314Z,969.92
2022-11-29T11:28:38.453Z,969.97
2022-11-29T11:29:38.404Z,969.95
2022-11-29T11:30:38.531Z,969.96
2022-11-29T11:31:38.539Z,969.97
2022-11-29T11:32:38.560Z,969.96
2022-11-29T11:33:38.711Z,969.97
2022-11-29T11:34:38.657Z,969.97
2022-11-29T11:35:38.698Z,969.98
2022-11-29T11:36:38.760Z,969.97
2022-11-29T11:37:38.885Z,969.99
2022-11-29T11:38:38.875Z,969.99
2022-11-29T11:39:39.040Z,969.99
2022-11-29T11:40:39.008Z,970.03
2022-11-29T11:41:38.987Z,969.98
2022-11-29T11:42:39.025Z,969.99
2022-11-29T11:43:39.075Z,970.00
2022-11-29T11:44:47.258Z,970.00
2022-11-29T11:45:39.177Z,970.00
2022-11-29T11:46:39.222Z,970.00
2022-11-29T11:47:39.221Z,970.01
2022-11-29T11:48:39.279Z,970.01
2022-11-29T11:49:39.353Z,970.00
2022-11-29T11:50:39.368Z,969.99
2022-11-29T11:51:39.415Z,969.97
2022-11-29T11:52:41.334Z,970.01
2022-11-29T11:53:39.539Z,970.02
2022-11-29T11:54:39.582Z,970.03
2022-11-29T11:55:39.625Z,970.00
2022-11-29T11:56:39.644Z,970.01
2022-11-29T11:57:39.695Z,970.02
2022-11-29T11:58:39.733Z,970.02
2022-11-29T11:59:39.785Z,970.01
2022-11-29T12:01:03.522Z,970.03
2022-11-29T12:01:39.874Z,970.00
2022-11-29T12:02:40.058Z,970.04
2022-11-29T12:03:40.036Z,970.01
2022-11-29T12:04:40.013Z,970.04
2022-11-29T12:05:43.616Z,970.05
2022-11-29T12:06:41.026Z,970.07
2022-11-29T12:08:06.948Z,970.07
2022-11-29T12:08:40.233Z,970.09
2022-11-29T12:09:40.275Z,970.10
2022-11-29T12:10:40.297Z,970.07
2022-11-29T12:11:40.359Z,970.09
2022-11-29T12:12:40.388Z,970.09
2022-11-29T12:13:40.485Z,970.12
2022-11-29T12:14:40.653Z,970.11
2022-11-29T12:15:40.615Z,970.07
2022-11-29T12:16:40.732Z,970.13
2022-11-29T12:17:41.579Z,970.11
2022-11-29T12:18:40.721Z,970.09
2022-11-29T12:19:40.773Z,970.12
2022-11-29T12:20:40.889Z,970.13
2022-11-29T12:21:40.822Z,970.10
2022-11-29T12:22:46.603Z,970.11
2022-11-29T12:23:40.921Z,970.15
2022-11-29T12:24:40.944Z,970.16
2022-11-29T12:25:41.053Z,970.15
2022-11-29T12:26:58.403Z,970.11
2022-11-29T12:27:41.084Z,970.13
2022-11-29T12:28:41.168Z,970.10
2022-11-29T12:29:41.179Z,970.08
2022-11-29T12:30:41.232Z,970.07
2022-11-29T12:31:41.306Z,970.13
2022-11-29T12:32:41.323Z,970.12
2022-11-29T12:33:41.367Z,970.14
2022-11-29T12:34:43.199Z,970.18
2022-11-29T12:35:41.553Z,970.15
2022-11-29T12:36:41.649Z,970.15
2022-11-29T12:37:41.629Z,970.19
2022-11-29T12:38:41.625Z,970.17
2022-11-29T12:39:41.703Z,970.17
2022-11-29T12:40:42.590Z,970.18
2022-11-29T12:41:41.767Z,970.18
2022-11-29T12:42:41.885Z,970.19
2022-11-29T12:43:41.871Z,970.18
2022-11-29T12:44:41.918Z,970.17
2022-11-29T12:45:41.959Z,970.14
2022-11-29T12:46:42.682Z,970.16
2022-11-29T12:47:42.277Z,970.15
2022-11-29T12:48:42.132Z,970.13
2022-11-29T12:49:42.149Z,970.14
2022-11-29T12:50:42.222Z,970.14
2022-11-29T12:51:42.251Z,970.13
2022-11-29T12:52:42.285Z,970.11
2022-11-29T12:53:42.289Z,970.09
2022-11-29T12:54:42.454Z,970.15
2022-11-29T12:55:42.389Z,970.12
2022-11-29T12:56:42.436Z,970.16
2022-11-29T12:57:42.510Z,970.14
2022-11-29T12:58:45.779Z,970.12
2022-11-29T12:59:42.573Z,970.17
2022-11-29T13:00:42.633Z,970.16